createdAt,value
2023-01-20T00:00:41.971Z,3.4
2023-01-20T00:03:56.748Z,3.6
2023-01-20T00:06:44.371Z,4.8
2023-01-20T00:09:32.115Z,4.4
2023-01-20T00:12:19.662Z,3.5
2023-01-20T00:15:06.878Z,2.7
2023-01-20T00:17:55.503Z,3.5
2023-01-20T00:20:43.473Z,4.6
2023-01-20T00:23:30.703Z,4.1
2023-01-20T00:26:18.468Z,3
2023-01-20T00:29:08.245Z,3
2023-01-20T00:31:55.715Z,4.2
2023-01-20T00:34:42.993Z,4.6
2023-01-20T00:37:31.194Z,3.6
2023-01-20T00:40:18.432Z,2.6
2023-01-20T00:43:05.746Z,2.8
2023-01-20T00:45:53.234Z,4.1
2023-01-20T00:48:40.588Z,5
2023-01-20T00:51:27.950Z,4.1
2023-01-20T00:54:15.659Z,3
2023-01-20T00:57:03.867Z,2.4
2023-01-20T00:59:51.172Z,3.3
2023-01-20T01:02:38.558Z,4.4
2023-01-20T01:05:25.943Z,4.9
2023-01-20T01:08:13.816Z,3.9
2023-01-20T01:11:01.999Z,2.8
2023-01-20T01:13:50.486Z,2.1
2023-01-20T01:16:39.819Z,3
2023-01-20T01:19:27.178Z,4.5
2023-01-20T01:22:14.502Z,4.6
2023-01-20T01:25:03.100Z,3.5
2023-01-20T01:27:51.411Z,2.5
2023-01-20T01:30:38.733Z,2.7
2023-01-20T01:33:26.019Z,3.9
2023-01-20T01:36:13.509Z,4.4
2023-01-20T01:39:02.881Z,3.5
2023-01-20T01:41:50.233Z,2.5
2023-01-20T01:44:37.474Z,2
2023-01-20T01:47:59.753Z,3.5
2023-01-20T01:50:53.116Z,4.6
2023-01-20T01:53:43.226Z,4
2023-01-20T01:56:38.195Z,2.8
2023-01-20T01:59:26.930Z,2
2023-01-20T02:02:14.333Z,3
2023-01-20T02:05:05.152Z,4.4
2023-01-20T02:07:53.273Z,4.1
2023-01-20T02:10:43.230Z,3
2023-01-20T02:13:30.549Z,2.2
2023-01-20T02:16:19.055Z,3.1
2023-01-20T02:19:17.982Z,4.4
2023-01-20T02:22:36.177Z,3.6
2023-01-20T02:25:33.384Z,2.5
2023-01-20T02:28:41.794Z,2.3
2023-01-20T02:31:46.683Z,3.7
2023-01-20T02:35:07.195Z,4.7
2023-01-20T02:37:59.130Z,3.8
2023-01-20T02:40:57.480Z,2.6
2023-01-20T02:43:52.951Z,2.8
2023-01-20T02:46:47.993Z,4.1
2023-01-20T02:49:42.135Z,4.7
2023-01-20T02:52:38.340Z,3.7
2023-01-20T02:55:30.369Z,2.6
2023-01-20T02:58:23.698Z,2.9
2023-01-20T03:01:18.422Z,4.2
2023-01-20T03:04:10.010Z,4.4
2023-01-20T03:07:01.941Z,3.4
2023-01-20T03:09:50.748Z,2.4
2023-01-20T03:12:43.188Z,2.8
2023-01-20T03:15:36.285Z,4.2
2023-01-20T03:18:33.948Z,4.2
2023-01-20T03:21:22.736Z,3.1
2023-01-20T03:24:10.256Z,2.2
2023-01-20T03:26:57.863Z,2.9
2023-01-20T03:29:45.149Z,4.2
2023-01-20T03:32:32.425Z,5
2023-01-20T03:35:19.749Z,4
2023-01-20T03:38:07.461Z,2.9
2023-01-20T03:40:55.739Z,2.7
2023-01-20T03:43:48.441Z,3.9
2023-01-20T03:46:41.712Z,4.5
2023-01-20T03:49:35.531Z,3.5
2023-01-20T03:52:47.815Z,2.5
2023-01-20T03:55:40.628Z,2.9
2023-01-20T03:58:32.009Z,4.1
2023-01-20T04:01:22.621Z,3.6
2023-01-20T04:04:17.707Z,2.6
2023-01-20T04:07:05.976Z,2.3
2023-01-20T04:09:57.238Z,3.7
2023-01-20T04:12:51.508Z,4.1
2023-01-20T04:15:39.466Z,3.2
2023-01-20T04:18:29.063Z,2.5
2023-01-20T04:21:16.426Z,3.5
2023-01-20T04:24:11.523Z,4.7
2023-01-20T04:27:06.332Z,4.6
2023-01-20T04:29:53.812Z,3.5
2023-01-20T04:32:41.051Z,2.5
2023-01-20T04:35:28.420Z,2.8
2023-01-20T04:38:15.860Z,4.1
2023-01-20T04:41:04.367Z,5
2023-01-20T04:43:52.010Z,4.3
2023-01-20T04:46:39.422Z,3.2
2023-01-20T04:49:26.739Z,2.3
2023-01-20T04:52:14.234Z,3
2023-01-20T04:55:02.215Z,4.4
2023-01-20T04:57:51.169Z,5.1
2023-01-20T05:00:38.533Z,4.2
2023-01-20T05:03:25.932Z,3.2
2023-01-20T05:06:13.274Z,2.6
2023-01-20T05:09:01.071Z,3.8
2023-01-20T05:11:48.524Z,5
2023-01-20T05:14:36.202Z,4.4
2023-01-20T05:17:23.509Z,3.4
2023-01-20T05:20:10.887Z,3.5
2023-01-20T05:23:01.293Z,4.8
2023-01-20T05:25:48.995Z,4.8
2023-01-20T05:28:36.687Z,3.8
2023-01-20T05:31:24.108Z,2.8
2023-01-20T05:34:11.378Z,3.2
2023-01-20T05:36:58.695Z,4.6
2023-01-20T05:39:45.955Z,4.8
2023-01-20T05:42:33.247Z,3.8
2023-01-20T05:45:20.453Z,2.8
2023-01-20T05:48:07.856Z,3.1
2023-01-20T05:50:55.231Z,4.6
2023-01-20T05:53:42.511Z,5.1
2023-01-20T05:56:29.883Z,4.2
2023-01-20T05:59:17.463Z,3.2
2023-01-20T06:02:05.485Z,2.7
2023-01-20T06:04:52.732Z,3.9
2023-01-20T06:07:40.652Z,5.4
2023-01-20T06:10:28.240Z,5
2023-01-20T06:13:15.527Z,3.9
2023-01-20T06:16:07.146Z,2.9
2023-01-20T06:18:54.747Z,3.6
2023-01-20T06:21:43.399Z,5
2023-01-20T06:24:32.684Z,5
2023-01-20T06:27:19.937Z,3.9
2023-01-20T06:30:07.343Z,2.9
2023-01-20T06:32:55.987Z,3.3
2023-01-20T06:35:44.572Z,4.7
2023-01-20T06:38:31.746Z,5.5
2023-01-20T06:41:20.441Z,4.6
2023-01-20T06:44:08.016Z,3.6
2023-01-20T06:46:55.363Z,3.8
2023-01-20T06:49:42.813Z,5
2023-01-20T06:52:30.174Z,5.7
2023-01-20T06:55:17.675Z,4.9
2023-01-20T06:58:05.143Z,3.7
2023-01-20T07:00:52.568Z,2.8
2023-01-20T07:03:41.323Z,3.6
2023-01-20T07:06:29.011Z,5
2023-01-20T07:09:18.402Z,5.7
2023-01-20T07:12:05.682Z,4.8
2023-01-20T07:14:53.107Z,3.7
2023-01-20T07:17:40.974Z,3.9
2023-01-20T07:20:28.204Z,5.1
2023-01-20T07:23:15.430Z,5.7
2023-01-20T07:26:03.674Z,4.8
2023-01-20T07:28:52.878Z,3.8
2023-01-20T07:31:40.252Z,3.4
2023-01-20T07:34:27.644Z,4.5
2023-01-20T07:37:14.961Z,5.8
2023-01-20T07:40:03.289Z,5.5
2023-01-20T07:42:52.688Z,4.5
2023-01-20T07:45:40.062Z,3.5
2023-01-20T07:48:27.430Z,4.3
2023-01-20T07:51:17.014Z,5.8
2023-01-20T07:54:04.865Z,5.9
2023-01-20T07:56:54.889Z,4.8
2023-01-20T07:59:42.146Z,3.8
2023-01-20T08:02:29.480Z,4.2
2023-01-20T08:05:22.143Z,5.8
2023-01-20T08:08:09.538Z,6
2023-01-20T08:10:56.880Z,4.9
2023-01-20T08:13:45.835Z,3.9
2023-01-20T08:16:33.908Z,4.4
2023-01-20T08:19:21.734Z,5.7
2023-01-20T08:22:09.042Z,5.9
2023-01-20T08:24:56.336Z,4.9
2023-01-20T08:27:43.580Z,3.9
2023-01-20T08:30:34.253Z,4.4
2023-01-20T08:33:21.705Z,6
2023-01-20T08:36:09.255Z,6.1
2023-01-20T08:38:58.814Z,5
2023-01-20T08:41:49.212Z,4.1
2023-01-20T08:44:37.075Z,4.5
2023-01-20T08:47:24.447Z,6
2023-01-20T08:50:11.768Z,6.2
2023-01-20T08:53:00.496Z,5.3
2023-01-20T08:55:47.984Z,4.3
2023-01-20T08:58:43.784Z,4.8
2023-01-20T09:01:31.842Z,6.3
2023-01-20T09:04:22.255Z,6.6
2023-01-20T09:07:09.578Z,5.6
2023-01-20T09:09:57.852Z,4.6
2023-01-20T09:12:45.153Z,4.8
2023-01-20T09:15:33.309Z,6.4
2023-01-20T09:18:20.614Z,6.6
2023-01-20T09:21:08.772Z,5.6
2023-01-20T09:23:56.446Z,4.6
2023-01-20T09:26:43.819Z,3.8
2023-01-20T09:29:32.076Z,4.6
2023-01-20T09:32:20.979Z,6.2
2023-01-20T09:35:08.259Z,6.7
2023-01-20T09:37:56.666Z,5.7
2023-01-20T09:41:16.018Z,4.6
2023-01-20T09:44:43.238Z,4.7
2023-01-20T09:47:35.714Z,6.3
2023-01-20T09:50:28.685Z,6.6
2023-01-20T09:53:58.728Z,5.4
2023-01-20T09:56:54.802Z,4.6
2023-01-20T09:59:45.474Z,5.7
2023-01-20T10:02:38.783Z,7.3
2023-01-20T10:05:29.446Z,6.8
2023-01-20T10:30:56.709Z,5.8
2023-01-20T10:33:47.743Z,7.5
2023-01-20T10:36:39.765Z,7.2
2023-01-20T10:39:31.584Z,6.1
2023-01-20T10:42:27.762Z,5.2
2023-01-20T10:45:15.528Z,5.6
2023-01-20T10:48:12.938Z,7.2
2023-01-20T10:51:14.412Z,7.4
2023-01-20T10:54:14.543Z,6.3
2023-01-20T10:57:12.172Z,5.3
2023-01-20T11:00:00.891Z,5.7
2023-01-20T11:03:02.514Z,7.3
2023-01-20T11:05:55.565Z,7.4
2023-01-20T11:08:44.410Z,6.3
2023-01-20T11:11:31.866Z,5.4
2023-01-20T11:14:19.128Z,5.6
2023-01-20T11:17:06.558Z,7
2023-01-20T11:19:59.759Z,7.7
2023-01-20T11:22:51.290Z,6.9
2023-01-20T11:25:40.141Z,5.9
2023-01-20T11:28:28.061Z,5.6
2023-01-20T11:31:32.696Z,7
2023-01-20T11:34:26.518Z,8.2
2023-01-20T11:37:16.123Z,7.4
2023-01-20T11:40:06.488Z,6.2
2023-01-20T11:43:06.078Z,5.4
2023-01-20T11:46:13.922Z,5.9
2023-01-20T11:49:12.508Z,7.6
2023-01-20T11:52:04.502Z,7.7
2023-01-20T11:55:05.012Z,6.7
2023-01-20T11:57:54.972Z,5.7
2023-01-20T12:00:44.250Z,5.3
2023-01-20T12:03:32.463Z,6.7
2023-01-20T12:06:37.118Z,8.1
2023-01-20T12:09:35.975Z,7.4
2023-01-20T12:12:26.437Z,6.3
2023-01-20T12:15:22.231Z,5.4
2023-01-20T12:18:13.004Z,5.8
2023-01-20T12:21:04.640Z,7.4
2023-01-20T12:24:03.342Z,7.4
2023-01-20T12:27:01.157Z,6.4
2023-01-20T12:29:48.601Z,5.5
2023-01-20T12:32:39.682Z,5.8
2023-01-20T12:35:27.085Z,7.2
2023-01-20T12:38:22.605Z,7.8
2023-01-20T12:41:12.278Z,6.8
2023-01-20T12:44:10.589Z,5.8
2023-01-20T12:47:08.646Z,5.1
2023-01-20T12:50:07.210Z,6.4
2023-01-20T12:53:08.739Z,7.7
2023-01-20T12:56:10.767Z,7.3
2023-01-20T12:59:08.412Z,6.3
2023-01-20T13:02:07.160Z,5.4
2023-01-20T13:05:22.009Z,6.3
2023-01-20T13:08:30.239Z,7.8
2023-01-20T13:11:26.019Z,7.7
2023-01-20T13:14:27.178Z,6.6
2023-01-20T13:17:25.212Z,5.6
2023-01-20T13:20:23.180Z,6.2
2023-01-20T13:23:12.796Z,7.5
2023-01-20T13:26:05.224Z,7.5
2023-01-20T13:28:53.982Z,6.5
2023-01-20T13:31:42.638Z,5.6
2023-01-20T13:34:31.282Z,5.9
2023-01-20T13:37:20.551Z,7.1
2023-01-20T13:40:12.001Z,8
2023-01-20T13:43:33.566Z,7
2023-01-20T13:46:36.959Z,5.7
2023-01-20T13:49:33.477Z,5.4
2023-01-20T13:52:39.323Z,6.8
2023-01-20T13:55:51.528Z,7.5
2023-01-20T13:58:47.415Z,6.6
2023-01-20T14:01:35.248Z,5.6
2023-01-20T14:04:23.952Z,5.8
2023-01-20T14:07:11.370Z,7
2023-01-20T14:10:08.108Z,7.4
2023-01-20T14:12:57.871Z,6.5
2023-01-20T14:15:45.328Z,5.4
2023-01-20T14:18:36.454Z,4.7
2023-01-20T14:21:26.072Z,5.7
2023-01-20T14:24:15.192Z,7.1
2023-01-20T14:27:12.932Z,7.1
2023-01-20T14:30:04.724Z,6.1
2023-01-20T14:33:04.511Z,5
2023-01-20T14:35:59.325Z,5.5
2023-01-20T14:38:57.380Z,7
2023-01-20T14:41:48.264Z,7.3
2023-01-20T14:44:37.742Z,6.3
2023-01-20T14:47:25.117Z,5.3
2023-01-20T14:50:14.640Z,4.9
2023-01-20T14:53:04.547Z,6.3
2023-01-20T14:55:52.043Z,7.5
2023-01-20T14:58:46.745Z,6.8
2023-01-20T15:01:38.511Z,5.7
2023-01-20T15:04:25.924Z,4.7
2023-01-20T15:07:21.416Z,5
2023-01-20T15:10:09.599Z,6.5
2023-01-20T15:12:59.757Z,7.4
2023-01-20T15:15:47.253Z,6.6
2023-01-20T15:18:34.759Z,5.6
2023-01-20T15:21:22.166Z,4.6
2023-01-20T15:24:12.459Z,4.9
2023-01-20T15:27:02.641Z,6.4
2023-01-20T15:30:07.891Z,6.8
2023-01-20T15:33:03.817Z,5.8
2023-01-20T15:35:54.178Z,4.9
2023-01-20T15:38:44.191Z,5.1
2023-01-20T15:41:31.631Z,6.5
2023-01-20T15:44:18.887Z,7.4
2023-01-20T15:47:06.628Z,6.5
2023-01-20T15:50:04.725Z,5.2
2023-01-20T15:52:59.737Z,4.6
2023-01-20T15:55:47.998Z,5.8
2023-01-20T15:58:36.744Z,7.3
2023-01-20T16:01:24.254Z,7
2023-01-20T16:04:13.763Z,5.9
2023-01-20T16:07:01.757Z,4.7
2023-01-20T16:09:49.125Z,5.1
2023-01-20T16:12:36.525Z,6.7
2023-01-20T16:15:23.898Z,7
2023-01-20T16:18:11.134Z,6
2023-01-20T16:21:00.752Z,4.9
2023-01-20T16:23:49.280Z,5.1
2023-01-20T16:26:36.616Z,6.5
2023-01-20T16:29:24.121Z,7.3
2023-01-20T16:32:11.596Z,6.4
2023-01-20T16:34:58.961Z,5.3
2023-01-20T16:37:46.287Z,4.7
2023-01-20T16:40:34.063Z,6.1
2023-01-20T16:43:21.400Z,7.4
2023-01-20T16:46:09.412Z,7
2023-01-20T16:48:59.477Z,5.9
2023-01-20T16:51:48.004Z,4.8
2023-01-20T16:54:35.392Z,5.1
2023-01-20T16:57:22.740Z,6.6
2023-01-20T17:00:10.021Z,6.8
2023-01-20T17:02:58.505Z,5.9
2023-01-20T17:05:47.605Z,4.9
2023-01-20T17:08:34.876Z,5.1
2023-01-20T17:11:22.301Z,6.3
2023-01-20T17:14:11.683Z,7.2
2023-01-20T17:17:00.221Z,6.2
2023-01-20T17:19:47.720Z,5
2023-01-20T17:22:35.201Z,4.2
2023-01-20T17:25:23.608Z,4.9
2023-01-20T17:28:11.101Z,6.7
2023-01-20T17:30:58.517Z,6.5
2023-01-20T17:33:46.826Z,5.5
2023-01-20T17:36:35.148Z,4.3
2023-01-20T17:39:23.279Z,4.5
2023-01-20T17:42:10.648Z,6
2023-01-20T17:44:58.020Z,6.6
2023-01-20T17:47:46.903Z,5.7
2023-01-20T17:50:36.009Z,4.6
2023-01-20T17:53:23.700Z,4.9
2023-01-20T17:56:13.166Z,6.3
2023-01-20T17:59:02.470Z,6.7
2023-01-20T18:01:50.505Z,5.7
2023-01-20T18:04:38.880Z,4.6
2023-01-20T18:07:26.165Z,4.8
2023-01-20T18:10:13.844Z,6.3
2023-01-20T18:13:06.920Z,7.2
2023-01-20T18:15:54.361Z,6
2023-01-20T18:18:41.742Z,4.9
2023-01-20T18:21:30.423Z,4.2
2023-01-20T18:24:19.444Z,5.2
2023-01-20T18:27:06.759Z,6.8
2023-01-20T18:29:54.070Z,6.7
2023-01-20T18:32:41.538Z,5.6
2023-01-20T18:35:28.979Z,4.6
2023-01-20T18:38:16.495Z,4.7
2023-01-20T18:41:04.972Z,6.2
2023-01-20T18:43:52.216Z,6.8
2023-01-20T18:46:39.673Z,5.5
2023-01-20T18:49:27.339Z,4.7
2023-01-20T18:52:14.633Z,4.4
2023-01-20T18:55:03.399Z,5.7
2023-01-20T18:57:52.010Z,7.1
2023-01-20T19:00:39.459Z,6.6
2023-01-20T19:03:27.206Z,5.4
2023-01-20T19:06:14.790Z,4.5
2023-01-20T19:09:06.364Z,4.9
2023-01-20T19:11:54.467Z,6.4
2023-01-20T19:14:41.739Z,6.8
2023-01-20T19:17:28.963Z,5.8
2023-01-20T19:20:18.037Z,4.8
2023-01-20T19:23:05.637Z,4.1
2023-01-20T19:25:53.005Z,5.1
2023-01-20T19:28:45.524Z,6.8
2023-01-20T19:31:39.541Z,6.2
2023-01-20T19:34:27.326Z,5.2
2023-01-20T19:37:15.213Z,4.1
2023-01-20T19:40:03.263Z,4.7
2023-01-20T19:42:52.171Z,6.2
2023-01-20T19:45:45.605Z,6.3
2023-01-20T19:48:33.398Z,5.3
2023-01-20T19:51:21.149Z,4.3
2023-01-20T19:54:09.682Z,4.6
2023-01-20T19:56:58.602Z,6.2
2023-01-20T19:59:45.972Z,6.1
2023-01-20T20:02:33.437Z,5.1
2023-01-20T20:05:21.003Z,4.2
2023-01-20T20:08:08.296Z,4.4
2023-01-20T20:10:55.792Z,6
2023-01-20T20:13:43.479Z,6.4
2023-01-20T20:16:30.807Z,5.3
2023-01-20T20:19:20.128Z,4.4
2023-01-20T20:22:07.628Z,3.9
2023-01-20T20:24:55.063Z,5.3
2023-01-20T20:27:42.332Z,6.6
2023-01-20T20:30:29.767Z,6
2023-01-20T20:33:17.577Z,4.9
2023-01-20T20:36:06.002Z,3.9
2023-01-20T20:38:55.579Z,4.3
2023-01-20T20:41:43.363Z,5.5
2023-01-20T20:44:30.861Z,6.2
2023-01-20T20:47:18.414Z,5.3
2023-01-20T20:50:05.982Z,4.4
2023-01-20T20:52:54.368Z,3.5
2023-01-20T20:55:42.634Z,4.1
2023-01-20T20:58:29.965Z,5.7
2023-01-20T21:01:17.810Z,6
2023-01-20T21:04:05.281Z,4.9
2023-01-20T21:06:52.706Z,4
2023-01-20T21:09:40.250Z,3.7
2023-01-20T21:12:27.613Z,5.1
2023-01-20T21:15:14.911Z,6.4
2023-01-20T21:18:04.235Z,5.7
2023-01-20T21:20:51.574Z,4.7
2023-01-20T21:23:40.723Z,3.7
2023-01-20T21:26:32.311Z,3.6
2023-01-20T21:29:19.949Z,5.2
2023-01-20T21:32:07.279Z,5.9
2023-01-20T21:34:54.492Z,5.1
2023-01-20T21:37:43.707Z,4
2023-01-20T21:40:35.013Z,3.3
2023-01-20T21:43:22.378Z,4
2023-01-20T21:46:41.727Z,5.3
2023-01-20T21:49:29.213Z,5.4
2023-01-20T21:52:48.383Z,4.1
2023-01-20T21:55:35.818Z,3.4
2023-01-20T21:58:23.160Z,3.7
2023-01-20T22:01:10.421Z,5.2
2023-01-20T22:03:57.766Z,5.4
2023-01-20T22:06:45.927Z,4.5
2023-01-20T22:09:33.223Z,3.5
2023-01-20T22:12:20.880Z,3.8
2023-01-20T22:15:08.541Z,5.1
2023-01-20T22:17:56.740Z,5.7
2023-01-20T22:20:43.994Z,4.8
2023-01-20T22:23:31.612Z,3.8
2023-01-20T22:26:19.975Z,3.3
2023-01-20T22:29:07.365Z,4.5
2023-01-20T22:31:54.686Z,5.8
2023-01-20T22:34:43.864Z,5.5
2023-01-20T22:37:31.177Z,4.5
2023-01-20T22:40:18.726Z,3.5
2023-01-20T22:43:06.135Z,3.7
2023-01-20T22:45:53.504Z,5.4
2023-01-20T22:48:43.457Z,5.4
2023-01-20T22:51:31.951Z,4.4
2023-01-20T22:54:19.303Z,3.5
2023-01-20T22:57:06.739Z,3.3
2023-01-20T22:59:54.301Z,4.7
2023-01-20T23:02:41.623Z,5.7
2023-01-20T23:05:29.081Z,4.9
2023-01-20T23:08:16.488Z,3.9
2023-01-20T23:11:05.103Z,3.2
2023-01-20T23:13:54.522Z,4.5
2023-01-20T23:16:42.163Z,5.7
2023-01-20T23:19:29.544Z,5.2
2023-01-20T23:22:16.947Z,4.1
2023-01-20T23:25:05.524Z,3.4
2023-01-20T23:27:53.516Z,4.5
2023-01-20T23:30:40.880Z,5.7
2023-01-20T23:33:28.759Z,5
2023-01-20T23:36:17.192Z,4
2023-01-20T23:39:06.869Z,3.4
2023-01-20T23:41:54.645Z,4.7
2023-01-20T23:44:42.526Z,5.6
2023-01-20T23:47:29.900Z,4.8
2023-01-20T23:50:17.790Z,3.9
2023-01-20T23:53:06.158Z,3.2
2023-01-20T23:55:53.987Z,4.2
2023-01-20T23:58:44.915Z,5.4
